Time;durP1;ratioP1;P1;durP2;ratioP2;P2;SDS_P1;SDS_P2;PMS_P1;PMS_P2;Temp;Humidity;BMP_temperature;BMP_pressure;BME280_temperature;BME280_humidity;BME280_pressure;Samples;Min_cycle;Max_cycle;Signal;HPM_P1;HPM_P2
2021/10/22 10:54:16;;;;;;;9.65;3.40;;;;;;;8.79;63.21;99304.84;2615796;46;20049;-74
2021/10/22 11:07:48;;;;;;;10.50;3.00;;;;;;;9.05;61.93;99302.75;2620886;39;20453;-70
2021/10/22 11:10:47;;;;;;;11.13;4.45;;;;;;;9.13;61.67;99300.09;2619230;54;20549;-70
2021/10/22 11:13:21;;;;;;;6.90;3.42;;;;;;;9.28;61.67;99284.38;2618618;47;20029;-68
2021/10/22 11:15:52;;;;;;;9.82;3.53;;;;;;;9.47;61.89;99283.13;2619585;54;20062;-67
2021/10/22 11:18:22;;;;;;;12.70;3.88;;;;;;;9.68;61.75;99287.78;2619412;54;20035;-68
2021/10/22 11:21:05;;;;;;;10.07;3.90;;;;;;;9.86;61.43;99276.94;2619276;54;20042;-68
2021/10/22 11:23:39;;;;;;;9.40;3.08;;;;;;;9.97;60.77;99271.25;2618984;54;20537;-69
2021/10/22 11:26:09;;;;;;;11.88;4.50;;;;;;;10.20;60.63;99257.16;2619334;54;20567;-69
2021/10/22 11:28:42;;;;;;;7.30;3.20;;;;;;;10.19;60.22;99269.56;2619245;54;20030;-68
2021/10/22 11:31:12;;;;;;;5.90;3.30;;;;;;;10.19;60.13;99261.63;2618922;54;20038;-69
2021/10/22 11:33:45;;;;;;;9.35;3.92;;;;;;;10.26;60.08;99262.59;2618711;54;20122;-71
2021/10/22 11:36:19;;;;;;;9.68;3.65;;;;;;;10.22;59.70;99253.38;2618994;54;20098;-67
2021/10/22 11:38:49;;;;;;;10.05;2.83;;;;;;;10.30;59.81;99260.44;2618514;54;20025;-69
2021/10/22 11:41:22;;;;;;;10.68;3.70;;;;;;;10.24;59.45;99261.09;2618132;47;20050;-69
2021/10/22 11:44:08;;;;;;;7.70;4.10;;;;;;;10.17;59.74;99269.75;2618132;47;20034;-69
2021/10/22 11:46:46;;;;;;;11.90;5.32;;;;;;;10.22;59.98;99252.53;2618677;54;20294;-69
2021/10/22 11:49:27;;;;;;;10.27;4.22;;;;;;;10.31;59.68;99262.06;2618613;54;20056;-69
2021/10/22 11:51:58;;;;;;;10.70;4.57;;;;;;;10.39;60.15;99251.41;2618789;54;20046;-69
2021/10/22 11:54:32;;;;;;;7.40;3.65;;;;;;;10.55;59.98;99248.59;2618614;54;20526;-69
2021/10/22 11:57:05;;;;;;;15.15;13.10;;;;;;;10.55;59.36;99247.78;2618301;54;20545;-69
2021/10/22 11:59:42;;;;;;;6.15;2.80;;;;;;;10.66;59.15;99245.53;2618333;54;20082;-68
2021/10/22 12:02:14;;;;;;;9.05;5.32;;;;;;;10.70;59.23;99243.34;2618887;39;20437;-69
2021/10/22 12:04:45;;;;;;;9.50;3.50;;;;;;;10.73;58.37;99247.41;2617746;47;20027;-69
2021/10/22 12:07:15;;;;;;;11.25;3.00;;;;;;;10.76;58.46;99252.34;2618464;54;20517;-68
2021/10/22 12:09:45;;;;;;;8.75;2.90;;;;;;;10.83;57.69;99247.97;2618452;54;20018;-69
2021/10/22 12:12:16;;;;;;;7.47;2.78;;;;;;;10.83;57.43;99254.09;2618412;54;20046;-69
2021/10/22 12:14:50;;;;;;;10.93;2.67;;;;;;;10.90;57.21;99256.81;2618290;54;20074;-69
2021/10/22 12:17:22;;;;;;;6.95;2.53;;;;;;;10.87;57.27;99251.91;2618359;54;20037;-69
2021/10/22 12:19:53;;;;;;;5.88;2.53;;;;;;;10.92;57.87;99249.50;2618808;54;20038;-69
2021/10/22 12:22:28;;;;;;;7.72;2.58;;;;;;;10.87;57.16;99243.97;2618082;54;20030;-68
2021/10/22 12:24:59;;;;;;;5.43;2.25;;;;;;;10.90;57.49;99260.28;2618216;54;20546;-69
2021/10/22 12:27:30;;;;;;;9.77;2.33;;;;;;;10.79;56.24;99268.69;2618533;54;20027;-69
2021/10/22 12:30:05;;;;;;;8.45;2.35;;;;;;;10.72;56.47;99266.94;2621004;39;20426;-69
2021/10/22 12:32:38;;;;;;;9.45;2.50;;;;;;;10.68;56.62;99261.19;2620679;54;20521;-69
2021/10/22 12:35:13;;;;;;;8.35;2.40;;;;;;;10.82;56.65;99254.28;2622072;54;20577;-69
2021/10/22 12:37:44;;;;;;;9.43;2.65;;;;;;;10.86;56.65;99253.72;2618387;54;20038;-68
2021/10/22 12:40:23;;;;;;;8.25;3.08;;;;;;;10.90;56.13;99262.13;2618586;54;20038;-68
2021/10/22 12:43:23;;;;;;;9.90;3.63;;;;;;;11.00;56.50;99264.47;2618799;54;20037;-69
2021/10/22 12:46:16;;;;;;;6.93;3.40;;;;;;;10.93;55.97;99260.91;2618844;47;20042;-69
2021/10/22 12:48:48;;;;;;;11.02;2.60;;;;;;;10.93;55.70;99263.56;2619945;54;20067;-69
2021/10/22 12:51:24;;;;;;;6.43;1.83;;;;;;;10.85;54.86;99264.47;2618949;47;20155;-69
2021/10/22 12:54:02;;;;;;;3.60;2.30;;;;;;;10.83;55.51;99264.66;2619988;54;20081;-70
2021/10/22 12:56:35;;;;;;;5.07;2.13;;;;;;;10.84;55.63;99262.84;2619932;54;20031;-70
2021/10/22 12:59:09;;;;;;;4.47;2.15;;;;;;;11.02;55.58;99265.94;2619974;54;20037;-69
2021/10/22 13:01:42;;;;;;;5.05;2.22;;;;;;;11.19;54.70;99261.25;2619556;54;20034;-69
2021/10/22 13:04:15;;;;;;;6.10;2.33;;;;;;;11.13;54.76;99259.34;2619928;54;20034;-70
2021/10/22 13:06:51;;;;;;;4.53;2.05;;;;;;;11.19;54.34;99265.75;2619862;54;20033;-70
2021/10/22 13:20:34;;;;;;;5.85;1.80;;;;;;;11.23;53.88;99257.25;2627252;54;20046;-68
2021/10/22 13:23:07;;;;;;;9.75;2.28;;;;;;;11.18;53.68;99245.56;2628720;39;20454;-68
2021/10/22 13:25:37;;;;;;;6.38;2.53;;;;;;;11.06;53.32;99247.84;2627270;54;20049;-68
2021/10/22 13:28:08;;;;;;;5.43;2.42;;;;;;;10.90;53.93;99243.59;2626461;47;20041;-69
2021/10/22 13:30:41;;;;;;;6.88;2.03;;;;;;;10.88;54.10;99249.06;2626906;54;20034;-69
2021/10/22 13:33:16;;;;;;;5.93;2.42;;;;;;;10.77;54.61;99254.81;2627534;54;20033;-68
2021/10/22 13:35:47;;;;;;;8.43;2.58;;;;;;;10.77;54.36;99252.16;2627431;54;20039;-69
2021/10/22 13:38:16;;;;;;;9.23;2.75;;;;;;;10.78;55.24;99250.34;2626998;54;20033;-68
2021/10/22 13:40:46;;;;;;;8.88;4.10;;;;;;;10.73;55.31;99245.59;2627706;54;20030;-69
2021/10/22 13:43:16;;;;;;;5.18;3.08;;;;;;;10.65;55.54;99250.97;2627050;54;20038;-69
2021/10/22 13:45:47;;;;;;;9.43;4.03;;;;;;;10.66;55.17;99256.09;2626294;54;20026;-68
2021/10/22 13:48:20;;;;;;;6.80;2.58;;;;;;;10.54;54.82;99251.44;2625245;39;20430;-69
2021/10/22 13:50:50;;;;;;;4.82;2.20;;;;;;;10.52;55.25;99262.19;2625222;54;20035;-69
2021/10/22 13:53:22;;;;;;;5.90;2.40;;;;;;;10.61;55.58;99260.28;2623411;46;20048;-68
2021/10/22 13:55:52;;;;;;;6.78;2.92;;;;;;;10.72;55.41;99259.00;2619972;54;20042;-69
2021/10/22 13:58:23;;;;;;;9.63;3.28;;;;;;;10.70;55.15;99263.66;2619702;54;20030;-68
2021/10/22 14:00:52;;;;;;;4.93;2.55;;;;;;;10.59;55.48;99270.22;2619835;54;20034;-69
2021/10/22 14:03:25;;;;;;;6.57;2.88;;;;;;;10.53;55.98;99268.28;2619070;54;20082;-68
2021/10/22 14:05:56;;;;;;;5.87;2.80;;;;;;;10.67;55.37;99259.56;2619343;39;20422;-68
2021/10/22 14:08:26;;;;;;;8.85;3.35;;;;;;;10.74;55.50;99260.47;2618389;54;20251;-68
2021/10/22 14:10:59;;;;;;;7.05;2.28;;;;;;;10.77;55.38;99256.63;2618742;54;20589;-68
2021/10/22 14:13:32;;;;;;;;;;;;;;;10.83;55.75;99263.84;2618303;47;20042;-68
2021/10/22 14:24:44;;;;;;;5.60;2.70;;;;;;;10.82;55.19;99252.44;2618610;54;20039;-68
2021/10/22 14:29:58;;;;;;;13.90;4.43;;;;;;;10.66;55.57;99265.84;2618279;47;20029;-69
2021/10/22 14:32:30;;;;;;;8.30;3.40;;;;;;;10.69;55.74;99273.41;2618735;54;20027;-69
2021/10/22 14:35:02;;;;;;;8.00;2.80;;;;;;;10.64;55.48;99271.31;2618802;54;20064;-69
2021/10/22 14:37:33;;;;;;;5.38;2.65;;;;;;;10.58;55.75;99274.69;2618875;54;20018;-69
2021/10/22 14:40:08;;;;;;;7.40;3.30;;;;;;;10.54;56.06;99275.22;2618576;54;20029;-69
2021/10/22 14:42:39;;;;;;;7.05;2.47;;;;;;;10.47;56.66;99282.22;2618668;54;20046;-69
2021/10/22 14:45:19;;;;;;;11.00;2.70;;;;;;;10.40;56.65;99290.88;2619691;54;20554;-68
2021/10/22 14:47:53;;;;;;;6.40;2.30;;;;;;;10.37;56.93;99288.59;2619149;54;20581;-69
2021/10/22 14:50:27;;;;;;;9.25;2.63;;;;;;;10.29;57.00;99288.69;2618904;54;20023;-69
2021/10/22 14:55:47;;;;;;;7.68;3.35;;;;;;;10.11;57.45;99311.91;2619073;54;20027;-69
2021/10/22 14:58:21;;;;;;;7.55;3.05;;;;;;;10.06;57.59;99293.94;2618743;54;20031;-68
2021/10/22 15:00:51;;;;;;;7.03;2.63;;;;;;;10.08;57.44;99296.41;2618889;54;20039;-69
2021/10/22 15:03:21;;;;;;;8.02;2.33;;;;;;;10.08;57.74;99305.16;2618605;54;20034;-69
2021/10/22 15:05:54;;;;;;;7.07;2.67;;;;;;;10.03;57.30;99296.94;2618522;47;20027;-68
2021/10/22 15:08:24;;;;;;;8.63;2.80;;;;;;;9.99;57.76;99300.94;2618477;54;20023;-68
2021/10/22 15:10:54;;;;;;;4.88;2.20;;;;;;;10.02;57.57;99307.69;2618338;47;20033;-69
2021/10/22 15:13:24;;;;;;;7.53;2.95;;;;;;;10.06;57.92;99304.50;2618342;54;20027;-68
2021/10/22 15:15:54;;;;;;;7.78;3.05;;;;;;;10.04;57.80;99308.31;2618300;54;20549;-69
2021/10/22 15:18:23;;;;;;;8.25;3.30;;;;;;;10.01;57.91;99317.44;2618705;54;20037;-69
2021/10/22 15:20:56;;;;;;;8.27;3.50;;;;;;;10.02;58.21;99313.78;2618761;54;20038;-69
2021/10/22 15:23:25;;;;;;;7.30;2.97;;;;;;;10.03;58.11;99317.25;2618089;54;20111;-69
2021/10/22 15:25:55;;;;;;;7.32;2.90;;;;;;;10.01;57.77;99313.97;2618540;54;20035;-69
2021/10/22 15:28:25;;;;;;;6.90;3.50;;;;;;;9.98;58.34;99323.06;2619093;54;20034;-69
2021/10/22 15:30:55;;;;;;;6.95;2.67;;;;;;;9.97;58.58;99317.97;2618682;54;20046;-70
2021/10/22 15:33:25;;;;;;;6.53;2.80;;;;;;;9.97;58.47;99324.06;2617887;54;20035;-68
2021/10/22 15:35:57;;;;;;;6.03;2.72;;;;;;;10.00;58.61;99320.22;2618398;54;20038;-70
2021/10/22 15:38:27;;;;;;;6.60;2.53;;;;;;;10.00;58.53;99328.16;2618487;54;20030;-68
2021/10/22 15:40:57;;;;;;;7.85;3.03;;;;;;;9.99;59.10;99327.34;2618644;54;20163;-69
2021/10/22 15:43:28;;;;;;;9.27;2.90;;;;;;;9.99;58.81;99323.88;2618214;54;20034;-69
2021/10/22 15:45:59;;;;;;;9.50;2.70;;;;;;;10.03;59.15;99328.63;2618077;54;20022;-68
2021/10/22 15:48:29;;;;;;;6.18;2.63;;;;;;;9.99;59.06;99326.53;2619081;54;20026;-68
2021/10/22 15:51:01;;;;;;;8.07;2.95;;;;;;;9.95;59.45;99326.03;2618710;54;20031;-68
2021/10/22 15:53:35;;;;;;;7.75;2.97;;;;;;;9.99;59.51;99322.06;2619097;39;20395;-68
2021/10/22 15:56:04;;;;;;;9.07;3.20;;;;;;;9.96;59.72;99325.06;2618640;39;20430;-69
2021/10/22 15:58:35;;;;;;;11.60;5.45;;;;;;;9.95;60.00;99317.31;2618443;47;20023;-67
2021/10/22 16:01:06;;;;;;;5.78;3.30;;;;;;;9.95;59.92;99315.47;2617868;47;20030;-69
2021/10/22 16:03:36;;;;;;;5.75;2.70;;;;;;;9.97;59.96;99312.69;2617874;47;20085;-69
2021/10/22 16:06:13;;;;;;;4.55;1.98;;;;;;;9.95;59.92;99312.84;2620527;47;20171;-70
2021/10/22 16:08:48;;;;;;;9.32;2.65;;;;;;;9.90;60.31;99316.00;2620566;54;20034;-70
2021/10/22 16:11:30;;;;;;;7.00;2.65;;;;;;;9.88;60.26;99317.22;2619250;54;20039;-69
2021/10/22 16:17:04;;;;;;;5.50;2.30;;;;;;;9.84;60.72;99322.00;2618332;47;20126;-70
2021/10/22 16:19:35;;;;;;;10.57;2.30;;;;;;;9.78;60.76;99327.16;2618548;47;20026;-70
2021/10/22 16:22:08;;;;;;;5.07;2.13;;;;;;;9.79;60.87;99331.44;2619469;39;20419;-68
2021/10/22 16:24:38;;;;;;;9.57;4.97;;;;;;;9.81;60.50;99329.47;2619508;54;20045;-68
2021/10/22 16:27:08;;;;;;;8.40;4.97;;;;;;;9.83;60.69;99338.81;2618790;54;20033;-69
2021/10/22 16:29:41;;;;;;;10.27;3.55;;;;;;;9.85;60.89;99341.31;2618827;54;20034;-69
2021/10/22 16:32:14;;;;;;;10.73;5.07;;;;;;;9.87;60.95;99353.31;2618387;47;20038;-68
2021/10/22 16:37:31;;;;;;;8.10;3.80;;;;;;;9.85;60.92;99350.06;2618269;54;20117;-69
2021/10/22 16:40:01;;;;;;;5.78;3.08;;;;;;;9.84;61.29;99356.34;2618454;54;20041;-68
2021/10/22 16:42:32;;;;;;;7.68;3.17;;;;;;;9.85;61.67;99359.81;2618076;54;20081;-70
2021/10/22 16:45:02;;;;;;;12.63;3.60;;;;;;;9.87;61.44;99360.44;2618331;54;20038;-69
2021/10/22 16:47:32;;;;;;;6.80;3.03;;;;;;;9.82;61.40;99363.59;2618712;39;20432;-69
2021/10/22 16:50:02;;;;;;;9.13;2.70;;;;;;;9.80;61.48;99367.44;2617478;54;20026;-68
2021/10/22 16:52:56;;;;;;;5.95;2.83;;;;;;;9.74;61.94;99368.91;2617851;54;20046;-68
2021/10/22 16:55:26;;;;;;;7.85;3.30;;;;;;;9.73;61.99;99375.22;2618439;54;20031;-69
2021/10/22 16:57:56;;;;;;;5.82;3.10;;;;;;;9.74;62.20;99379.47;2618375;54;20030;-69
2021/10/22 17:00:26;;;;;;;5.75;2.28;;;;;;;9.66;62.19;99374.25;2618856;54;20041;-69
2021/10/22 17:02:57;;;;;;;10.57;4.00;;;;;;;9.61;62.86;99373.94;2620563;54;20037;-68
2021/10/22 17:05:27;;;;;;;8.38;4.22;;;;;;;9.64;62.73;99381.53;2619581;47;20057;-69
2021/10/22 17:08:00;;;;;;;8.65;5.35;;;;;;;9.62;62.75;99383.50;2617921;47;20639;-69
2021/10/22 17:10:30;;;;;;;14.13;5.20;;;;;;;9.65;63.35;99388.44;2618629;54;20043;-68
2021/10/22 17:13:00;;;;;;;14.80;4.43;;;;;;;9.61;63.12;99385.31;2618661;54;20038;-69
2021/10/22 17:15:30;;;;;;;13.60;5.78;;;;;;;9.61;63.34;99405.63;2618659;54;20046;-69
2021/10/22 17:18:00;;;;;;;10.02;3.60;;;;;;;9.57;63.17;99402.50;2620392;54;20042;-69
2021/10/22 17:20:29;;;;;;;6.90;3.55;;;;;;;9.57;63.51;99399.03;2620657;54;20045;-69
2021/10/22 17:23:02;;;;;;;7.07;3.63;;;;;;;9.53;63.84;99403.84;2619979;47;20035;-69
2021/10/22 17:25:32;;;;;;;20.67;9.05;;;;;;;9.51;63.56;99399.72;2620744;54;20065;-68
2021/10/22 17:28:01;;;;;;;13.23;7.93;;;;;;;9.49;63.75;99407.81;2621587;54;20034;-68
2021/10/22 17:30:31;;;;;;;9.73;4.00;;;;;;;9.48;63.83;99406.16;2621964;39;20504;-69
2021/10/22 17:33:01;;;;;;;13.63;4.60;;;;;;;9.42;64.39;99418.22;2620195;54;20030;-68
2021/10/22 17:35:31;;;;;;;8.65;3.50;;;;;;;9.40;64.11;99424.66;2621435;54;20030;-68
2021/10/22 17:38:03;;;;;;;9.20;2.95;;;;;;;9.38;64.42;99424.81;2621352;47;20026;-68
2021/10/22 17:40:33;;;;;;;9.73;3.53;;;;;;;9.38;64.49;99424.00;2622163;54;20027;-68
2021/10/22 17:43:03;;;;;;;10.85;3.55;;;;;;;9.35;65.01;99445.47;2621434;46;20030;-69
2021/10/22 17:45:33;;;;;;;9.88;4.22;;;;;;;9.37;65.12;99440.84;2622120;54;20030;-68
2021/10/22 17:48:03;;;;;;;4.85;3.55;;;;;;;9.37;64.83;99454.84;2622659;54;20034;-69
2021/10/22 17:50:33;;;;;;;9.15;2.85;;;;;;;9.39;64.87;99446.78;2621775;46;20574;-68
2021/10/22 17:53:05;;;;;;;5.85;2.50;;;;;;;9.38;65.20;99458.31;2621935;54;20034;-69
2021/10/22 17:55:37;;;;;;;8.13;3.10;;;;;;;9.35;65.62;99464.75;2622017;54;20038;-69
2021/10/22 17:58:07;;;;;;;7.68;3.00;;;;;;;9.36;65.50;99466.41;2621808;54;20519;-69
2021/10/22 18:00:37;;;;;;;7.30;3.25;;;;;;;9.33;65.52;99468.56;2621509;54;20035;-68
2021/10/22 18:03:08;;;;;;;6.28;3.25;;;;;;;9.34;66.01;99457.81;2621746;54;20038;-69
2021/10/22 18:05:40;;;;;;;9.45;3.33;;;;;;;9.38;65.93;99466.22;2621975;54;20026;-69
2021/10/22 18:08:12;;;;;;;5.63;3.25;;;;;;;9.41;66.16;99465.91;2621369;54;20062;-69
2021/10/22 18:10:43;;;;;;;7.95;3.03;;;;;;;9.46;66.13;99463.56;2621812;54;20033;-68
2021/10/22 18:13:14;;;;;;;10.43;3.40;;;;;;;9.51;66.07;99463.91;2621684;54;20042;-68
2021/10/22 18:15:45;;;;;;;8.18;3.95;;;;;;;9.50;65.60;99461.41;2618935;46;20029;-68
2021/10/22 18:18:14;;;;;;;8.65;3.80;;;;;;;9.45;66.14;99469.84;2619388;54;20031;-68
2021/10/22 18:20:47;;;;;;;15.20;4.28;;;;;;;9.50;65.87;99471.97;2619512;54;20027;-67
2021/10/22 18:23:23;;;;;;;8.98;4.53;;;;;;;9.51;65.87;99465.69;2618136;54;20038;-67
2021/10/22 18:25:53;;;;;;;7.68;3.60;;;;;;;9.52;65.98;99470.81;2618727;54;20538;-68
2021/10/22 18:28:33;;;;;;;7.82;3.05;;;;;;;9.50;66.16;99462.22;2618791;54;20541;-68
2021/10/22 18:31:05;;;;;;;10.63;3.70;;;;;;;9.51;66.22;99473.59;2618653;54;20601;-68
2021/10/22 18:33:37;;;;;;;4.57;2.75;;;;;;;9.49;65.79;99472.97;2618499;31;20531;-68
2021/10/22 18:36:10;;;;;;;7.32;3.10;;;;;;;9.50;66.25;99470.16;2618162;47;20023;-68
2021/10/22 18:38:45;;;;;;;9.82;2.95;;;;;;;9.52;66.05;99472.63;2618494;54;20117;-69
2021/10/22 18:41:16;;;;;;;8.27;3.13;;;;;;;9.55;66.15;99474.91;2618740;54;20114;-68
2021/10/22 18:43:49;;;;;;;;;;;;;;;9.56;65.92;99480.06;2618547;54;20038;-68
2021/10/22 18:46:21;;;;;;;7.35;3.33;;;;;;;9.52;66.06;99473.47;2619159;39;20354;-68
2021/10/22 18:49:04;;;;;;;8.75;3.28;;;;;;;9.46;66.33;99473.31;2618721;54;20061;-68
2021/10/22 18:51:34;;;;;;;10.85;3.58;;;;;;;9.48;66.07;99466.06;2618911;39;20470;-68
2021/10/22 18:54:07;;;;;;;9.43;4.13;;;;;;;9.47;66.61;99477.56;2618750;54;20042;-68
2021/10/22 18:56:38;;;;;;;12.27;4.07;;;;;;;9.42;66.68;99465.72;2618835;54;20033;-69
2021/10/22 18:59:09;;;;;;;5.68;3.58;;;;;;;9.47;66.85;99472.31;2618622;54;20031;-68
2021/10/22 19:01:39;;;;;;;9.07;4.43;;;;;;;9.52;66.33;99475.28;2618768;54;20026;-68
2021/10/22 19:04:10;;;;;;;7.00;3.70;;;;;;;9.51;66.58;99474.47;2618591;54;20582;-69
2021/10/22 19:06:43;;;;;;;4.82;2.70;;;;;;;9.47;66.49;99472.31;2617970;54;20038;-69
2021/10/22 19:09:15;;;;;;;7.80;3.08;;;;;;;9.51;66.47;99473.59;2617879;47;20133;-69
2021/10/22 19:11:45;;;;;;;8.00;2.95;;;;;;;9.49;66.56;99483.53;2618113;47;20030;-69
2021/10/22 19:14:15;;;;;;;6.80;2.78;;;;;;;9.45;66.63;99474.31;2618340;54;20034;-69
2021/10/22 19:16:44;;;;;;;8.27;2.88;;;;;;;9.47;66.83;99490.78;2618694;54;20049;-69
2021/10/22 19:19:15;;;;;;;8.10;3.70;;;;;;;9.46;67.25;99489.94;2618418;54;20027;-69
2021/10/22 19:21:45;;;;;;;8.38;3.28;;;;;;;9.41;67.43;99490.47;2618202;54;20030;-69
2021/10/22 19:24:17;;;;;;;13.73;4.53;;;;;;;9.40;67.68;99499.38;2617946;47;20038;-69
2021/10/22 19:26:48;;;;;;;9.88;3.60;;;;;;;9.39;67.29;99504.84;2618921;54;20570;-68
2021/10/22 19:29:19;;;;;;;10.57;5.00;;;;;;;9.35;67.84;99504.34;2618475;47;20037;-68
2021/10/22 19:31:49;;;;;;;17.95;7.32;;;;;;;9.34;67.87;99504.50;2618096;47;20124;-68
2021/10/22 19:34:19;;;;;;;17.42;7.90;;;;;;;9.34;67.83;99513.22;2617929;47;20603;-68
2021/10/22 19:36:49;;;;;;;11.63;5.50;;;;;;;9.34;67.86;99515.88;2617836;47;20026;-68
2021/10/22 19:39:22;;;;;;;10.15;5.68;;;;;;;9.37;67.85;99527.91;2618666;54;20773;-69
2021/10/22 19:41:51;;;;;;;15.10;6.25;;;;;;;9.35;68.07;99528.09;2618136;47;20085;-68
2021/10/22 19:44:21;;;;;;;20.00;8.52;;;;;;;9.37;68.26;99527.91;2618419;54;20589;-68
2021/10/22 19:46:51;;;;;;;21.02;8.13;;;;;;;9.40;68.03;99524.94;2618724;54;20037;-69
2021/10/22 19:49:21;;;;;;;18.88;7.15;;;;;;;9.37;68.03;99530.56;2619114;39;20190;-69
2021/10/22 19:51:51;;;;;;;17.90;6.22;;;;;;;9.38;67.99;99540.94;2617760;47;20057;-69
2021/10/22 19:54:24;;;;;;;15.15;5.38;;;;;;;9.41;67.96;99540.59;2618552;54;20030;-69
2021/10/22 19:56:54;;;;;;;15.65;6.65;;;;;;;9.42;68.46;99544.06;2618280;54;20038;-70
2021/10/22 19:59:24;;;;;;;15.32;5.25;;;;;;;9.42;68.03;99550.16;2617671;54;20039;-69
2021/10/22 20:01:53;;;;;;;23.15;6.32;;;;;;;9.41;67.89;99559.06;2617550;47;20035;-68
2021/10/22 20:04:23;;;;;;;21.63;7.13;;;;;;;9.41;67.97;99553.78;2617674;54;20081;-69
2021/10/22 20:06:53;;;;;;;20.25;7.40;;;;;;;9.46;68.09;99557.75;2618123;54;20023;-68
2021/10/22 20:09:26;;;;;;;12.43;4.47;;;;;;;9.49;68.48;99565.34;2617480;54;20026;-70
2021/10/22 20:11:56;;;;;;;7.50;3.28;;;;;;;9.47;68.49;99562.88;2617754;47;20022;-70
2021/10/22 20:14:26;;;;;;;11.25;4.53;;;;;;;9.49;68.44;99567.97;2617682;47;20022;-69
2021/10/22 20:16:55;;;;;;;9.30;4.13;;;;;;;9.52;68.14;99565.03;2617817;47;20026;-69
2021/10/22 20:19:25;;;;;;;5.88;3.60;;;;;;;9.49;68.51;99578.53;2617459;54;20053;-69
2021/10/22 20:21:55;;;;;;;9.45;3.40;;;;;;;9.51;68.57;99568.63;2617490;54;20546;-69
2021/10/22 20:24:29;;;;;;;8.02;3.38;;;;;;;9.52;68.75;99578.22;2617431;54;20033;-69
2021/10/22 20:26:58;;;;;;;7.75;3.47;;;;;;;9.54;68.65;99587.59;2618213;47;20034;-69
2021/10/22 20:29:28;;;;;;;8.48;3.25;;;;;;;9.56;68.45;99584.81;2617694;54;20034;-69
2021/10/22 20:31:57;;;;;;;8.43;3.00;;;;;;;9.48;68.52;99593.56;2617812;54;20022;-69
2021/10/22 20:34:30;;;;;;;6.90;3.33;;;;;;;9.48;69.02;99587.47;2618019;54;20038;-69
2021/10/22 20:37:00;;;;;;;10.50;3.92;;;;;;;9.48;68.89;99600.66;2617989;54;20025;-69
2021/10/22 20:39:33;;;;;;;8.27;3.50;;;;;;;9.47;68.99;99599.84;2619709;54;20022;-70
2021/10/22 20:42:02;;;;;;;7.05;3.40;;;;;;;9.42;69.02;99610.84;2620909;54;20031;-70
2021/10/22 20:44:32;;;;;;;8.35;3.75;;;;;;;9.45;68.95;99608.91;2618079;54;20042;-68
2021/10/22 20:47:03;;;;;;;11.70;3.72;;;;;;;9.43;69.21;99612.53;2618155;54;20045;-68
2021/10/22 20:49:44;;;;;;;4.57;2.97;;;;;;;9.43;69.69;99617.00;2618242;54;20038;-69
2021/10/22 20:57:41;;;;;;;6.50;3.70;;;;;;;9.50;69.40;99611.84;2625920;54;20030;-69
2021/10/22 21:00:13;;;;;;;12.43;3.67;;;;;;;9.51;69.71;99616.13;2625875;50;20593;-69
2021/10/22 21:02:43;;;;;;;10.05;3.30;;;;;;;9.50;69.44;99615.31;2626405;54;20045;-70
2021/10/22 21:05:13;;;;;;;10.23;3.97;;;;;;;9.51;69.21;99613.50;2626764;54;20027;-69
2021/10/22 21:07:42;;;;;;;8.68;3.42;;;;;;;9.50;69.80;99609.22;2625717;47;20030;-70
2021/10/22 21:10:15;;;;;;;6.80;3.50;;;;;;;9.48;69.58;99611.22;2626581;54;20030;-69
2021/10/22 21:12:44;;;;;;;7.38;3.22;;;;;;;9.43;69.71;99617.81;2628310;39;20433;-70
2021/10/22 21:15:14;;;;;;;8.80;3.30;;;;;;;9.49;69.55;99624.22;2628715;39;20441;-69
2021/10/22 21:17:45;;;;;;;8.25;3.67;;;;;;;9.50;69.81;99630.31;2626539;54;20631;-69
2021/10/22 21:20:14;;;;;;;10.23;4.13;;;;;;;9.46;69.50;99637.75;2626663;54;20038;-70
2021/10/22 21:22:44;;;;;;;7.30;3.42;;;;;;;9.48;69.85;99633.16;2625125;47;20026;-68
2021/10/22 21:25:18;;;;;;;8.80;3.03;;;;;;;9.49;70.05;99631.31;2625619;54;20040;-69
2021/10/22 21:27:47;;;;;;;;;;;;;;;9.50;69.61;99638.25;2619813;54;20041;-69
2021/10/22 21:30:17;;;;;;;5.90;3.15;;;;;;;9.51;70.00;99646.03;2618148;54;19986;-69
2021/10/22 21:32:49;;;;;;;9.30;3.20;;;;;;;9.47;69.86;99631.50;2618968;39;20435;-69
2021/10/22 21:35:18;;;;;;;11.07;3.50;;;;;;;9.49;69.88;99631.31;2618845;54;20550;-69
2021/10/22 21:37:48;;;;;;;8.77;3.38;;;;;;;9.53;70.03;99630.00;2620208;54;20022;-69
2021/10/22 21:40:20;;;;;;;9.65;4.88;;;;;;;9.53;69.90;99630.81;2620386;54;20070;-69
2021/10/22 21:42:50;;;;;;;7.68;4.22;;;;;;;9.52;70.26;99629.19;2619401;47;20046;-70
2021/10/22 21:45:21;;;;;;;9.27;3.42;;;;;;;9.55;70.32;99628.00;2619293;54;20023;-69
2021/10/22 21:47:51;;;;;;;9.07;3.63;;;;;;;9.58;70.01;99630.31;2618375;47;20081;-69
2021/10/22 21:50:22;;;;;;;10.88;3.78;;;;;;;9.59;69.75;99638.09;2618375;47;20038;-70
2021/10/22 21:52:51;;;;;;;6.80;3.28;;;;;;;9.59;69.78;99637.25;2618887;54;20033;-69
2021/10/22 21:55:24;;;;;;;8.45;3.83;;;;;;;9.60;69.78;99639.75;2619029;54;20034;-70
2021/10/22 21:57:53;;;;;;;7.13;3.28;;;;;;;9.58;69.81;99640.88;2618287;54;20042;-70
2021/10/22 22:00:25;;;;;;;6.97;3.55;;;;;;;9.61;70.11;99643.19;2618412;47;20038;-69
2021/10/22 22:02:55;;;;;;;6.35;3.30;;;;;;;9.61;69.93;99651.13;2618191;47;20039;-69
2021/10/22 22:05:28;;;;;;;8.15;3.35;;;;;;;9.62;69.72;99647.47;2618911;54;20030;-68
2021/10/22 22:07:57;;;;;;;5.68;3.33;;;;;;;9.65;69.59;99640.06;2618907;54;20070;-68
2021/10/22 22:10:30;;;;;;;8.55;3.75;;;;;;;9.60;69.90;99647.66;2618998;54;20039;-68
2021/10/22 22:13:00;;;;;;;8.20;3.33;;;;;;;9.62;70.06;99642.19;2619041;39;20450;-68
2021/10/22 22:15:31;;;;;;;6.70;3.30;;;;;;;9.63;69.79;99655.25;2618573;54;20030;-68
2021/10/22 22:18:01;;;;;;;6.40;3.33;;;;;;;9.59;69.92;99656.56;2618864;54;20026;-68
2021/10/22 22:20:31;;;;;;;10.80;3.47;;;;;;;9.58;69.72;99654.91;2618706;54;20051;-68
2021/10/22 22:23:01;;;;;;;12.38;3.70;;;;;;;9.59;69.86;99651.28;2618218;54;20023;-68
2021/10/22 22:25:34;;;;;;;8.15;3.25;;;;;;;9.57;69.63;99663.81;2618658;54;20046;-67
2021/10/22 22:28:04;;;;;;;7.68;2.80;;;;;;;9.55;69.93;99670.25;2618877;39;20473;-67
2021/10/22 22:30:33;;;;;;;9.70;3.40;;;;;;;9.53;70.26;99667.78;2618584;54;20035;-68
2021/10/22 22:33:05;;;;;;;10.25;3.42;;;;;;;9.50;70.31;99672.56;2618543;54;20022;-68
2021/10/22 22:35:36;;;;;;;10.75;3.03;;;;;;;9.46;70.11;99676.50;2618153;47;20043;-69
2021/10/22 22:38:06;;;;;;;9.73;4.15;;;;;;;9.49;70.57;99669.09;2617815;47;20539;-69
2021/10/22 22:40:39;;;;;;;10.07;3.40;;;;;;;9.52;70.07;99668.78;2618819;54;20134;-68
2021/10/22 22:43:09;;;;;;;7.18;2.47;;;;;;;9.46;70.36;99669.41;2618644;54;20041;-68
2021/10/22 22:45:38;;;;;;;7.28;3.05;;;;;;;9.46;70.17;99674.69;2618539;54;20077;-68
2021/10/22 22:48:09;;;;;;;8.45;3.13;;;;;;;9.50;70.47;99680.47;2618852;54;20423;-68
2021/10/22 22:50:39;;;;;;;6.13;3.13;;;;;;;9.48;70.54;99679.84;2619112;54;20030;-68
2021/10/22 22:53:09;;;;;;;12.02;2.80;;;;;;;9.49;70.50;99684.13;2618804;54;20030;-68
2021/10/22 22:55:41;;;;;;;9.65;3.60;;;;;;;9.47;70.03;99683.44;2618775;54;20031;-68
2021/10/22 22:58:10;;;;;;;9.60;2.90;;;;;;;9.45;70.41;99680.16;2618573;54;20082;-68
2021/10/22 23:00:40;;;;;;;6.60;3.13;;;;;;;9.42;70.16;99686.56;2618022;47;20031;-68
2021/10/22 23:03:12;;;;;;;9.75;3.08;;;;;;;9.43;70.53;99685.59;2618644;54;20026;-68
2021/10/22 23:05:41;;;;;;;8.40;3.08;;;;;;;9.40;70.60;99699.13;2618643;54;20026;-68
2021/10/22 23:08:11;;;;;;;9.82;3.17;;;;;;;9.40;70.41;99694.66;2624061;39;20422;-70
2021/10/22 23:10:44;;;;;;;11.07;3.00;;;;;;;9.41;70.34;99701.59;2626168;39;20441;-71
2021/10/22 23:13:14;;;;;;;9.48;3.25;;;;;;;9.43;70.60;99696.97;2624566;47;20027;-71
2021/10/22 23:15:44;;;;;;;9.63;3.00;;;;;;;9.46;70.24;99695.00;2625365;54;20054;-71
2021/10/22 23:18:13;;;;;;;6.03;3.22;;;;;;;9.48;70.21;99696.50;2625420;54;20038;-70
2021/10/22 23:20:44;;;;;;;9.07;2.92;;;;;;;9.50;70.31;99701.59;2625429;54;20027;-71
2021/10/22 23:23:14;;;;;;;8.10;3.28;;;;;;;9.43;70.58;99704.06;2624106;54;20034;-72
2021/10/22 23:25:46;;;;;;;8.57;3.40;;;;;;;9.42;70.83;99710.31;2624714;54;20035;-71
2021/10/22 23:28:16;;;;;;;5.20;2.88;;;;;;;9.37;71.14;99710.81;2626351;39;20418;-72
2021/10/22 23:30:45;;;;;;;7.13;4.38;;;;;;;9.41;71.17;99712.13;2626042;54;20030;-71
2021/10/22 23:33:15;;;;;;;11.52;4.00;;;;;;;9.41;71.16;99714.78;2625975;54;20028;-72
2021/10/22 23:35:45;;;;;;;8.95;4.10;;;;;;;9.38;71.36;99719.56;2625348;54;20026;-71
2021/10/22 23:38:14;;;;;;;10.02;4.55;;;;;;;9.39;71.08;99711.50;2624761;47;20052;-72